Aérodrome :
LOGIN :

S'inscrire | Disclaimer

   EN    FR    IT 

 










Légende :    VFR   VFR Marginal   IFR   IFR Intensif   IFR Très Intensif
Visi : 
Plafond : 
>= 8 km
>= 3000ft
5 à 8 km
1000 à 3000 ft
1500m à 5 km
500 à 1000 ft
800 à 1500m
200 à 500 ft
< 800m
< 200 ft
Symboles :   Orages  Brouillard  Fortes neiges  Fortes précipitations  Vent > 20 kt
SIGMETs :   Divers  Orages  Givrage  Turbulence  Onde Orograph.  Cendres Volcan.






- Altitude de l'aérodrome : 0 ft
- Code IATA : QFR


LIRH - Frosinone Military

DERNIER METAR :
  • 200955Z 18003KT 5000 BR BKN035 08/04 Q1026 RMK BKN MON CIME INC NC VIS MIN 5000 WIND THR16 /////KT WHT

METARs EXPIRÉS :
  • 200855Z 03002KT 5000 BR BKN035 05/03 Q1026 RMK BKN MON CIME INC NC VIS MIN 5000 WIND THR16 /////KT WHT
  • 200755Z 00000KT 3000 BR BKN040 04/03 Q1026 RMK BKN MON CIME INC VAR RAPID VIS MIN 3000 WIND THR16 /////KT YLO

TAF TAF LIRH
Valide du 20 à 09h jusqu'au 20 à 18h UTC


200800Z 2009/2018 13006KT 7000 SCT040
TEMPO 2009/2011 VRB03KT 5000 BR SCT015
PROB40
TEMPO 2018/2021 4000 RA BKN030



MET'MAP, la Météo Aéronautique d'un coup d'oeil ! - Copyright ORBIFLY Décembre 2007 - Disclaimer

ORBIFLY MET'MAP TEAM :

Programmation & Développement : Alexandra Zaïnal
Sur une idée originale de : Baudouin d'Aumeries
Assistance à la programmation : Marc-Olivier Méhu
Soutien technique & logistique : Manuel Goepfert

Contact : metmap@orbifly.com




SOURCES & CREDITS :

   NOAA